sensor_id;sensor_type;location;lat;lon;timestamp;pressure;altitude;pressure_sealevel;temperature;humidity
47636;BME280;33364;50.766;15.338;2022-08-14T00:00:17;94836.78;;;17.58;92.29
47636;BME280;33364;50.766;15.338;2022-08-14T00:03:02;94835.78;;;17.59;92.53
47636;BME280;33364;50.766;15.338;2022-08-14T00:05:28;94835.97;;;17.58;92.45
47636;BME280;33364;50.766;15.338;2022-08-14T00:07:54;94833.69;;;17.47;93.35
47636;BME280;33364;50.766;15.338;2022-08-14T00:10:21;94834.66;;;17.46;93.08
47636;BME280;33364;50.766;15.338;2022-08-14T00:12:50;94833.22;;;17.43;93.51
47636;BME280;33364;50.766;15.338;2022-08-14T00:15:23;94836.84;;;17.42;93.48
47636;BME280;33364;50.766;15.338;2022-08-14T00:17:50;94825.69;;;17.40;94.07
47636;BME280;33364;50.766;15.338;2022-08-14T00:20:18;94828.81;;;17.44;93.89
47636;BME280;33364;50.766;15.338;2022-08-14T00:22:46;94829.44;;;17.46;93.90
47636;BME280;33364;50.766;15.338;2022-08-14T00:25:11;94827.00;;;17.44;94.11
47636;BME280;33364;50.766;15.338;2022-08-14T00:27:37;94825.69;;;17.48;93.28
47636;BME280;33364;50.766;15.338;2022-08-14T00:30:06;94824.06;;;17.47;93.27
47636;BME280;33364;50.766;15.338;2022-08-14T00:32:32;94823.56;;;17.44;93.84
47636;BME280;33364;50.766;15.338;2022-08-14T00:34:58;94817.97;;;17.47;93.31
47636;BME280;33364;50.766;15.338;2022-08-14T00:37:28;94818.16;;;17.53;93.80
47636;BME280;33364;50.766;15.338;2022-08-14T00:39:53;94810.00;;;17.48;94.20
47636;BME280;33364;50.766;15.338;2022-08-14T00:42:20;94808.38;;;17.47;94.39
47636;BME280;33364;50.766;15.338;2022-08-14T00:44:45;94803.16;;;17.39;94.36
47636;BME280;33364;50.766;15.338;2022-08-14T00:47:13;94811.16;;;17.38;94.75
47636;BME280;33364;50.766;15.338;2022-08-14T00:49:39;94816.91;;;17.33;94.57
47636;BME280;33364;50.766;15.338;2022-08-14T00:52:04;94822.13;;;17.33;94.49
47636;BME280;33364;50.766;15.338;2022-08-14T00:54:32;94819.53;;;17.33;94.98
47636;BME280;33364;50.766;15.338;2022-08-14T00:56:58;94818.22;;;17.29;94.66
47636;BME280;33364;50.766;15.338;2022-08-14T00:59:25;94809.38;;;17.30;94.44
47636;BME280;33364;50.766;15.338;2022-08-14T01:01:57;94809.19;;;17.31;94.31
47636;BME280;33364;50.766;15.338;2022-08-14T01:04:24;94808.88;;;17.34;94.35
47636;BME280;33364;50.766;15.338;2022-08-14T01:06:50;94810.38;;;17.29;94.16
47636;BME280;33364;50.766;15.338;2022-08-14T01:09:20;94807.94;;;17.27;94.66
47636;BME280;33364;50.766;15.338;2022-08-14T01:11:49;94808.38;;;17.31;94.39
47636;BME280;33364;50.766;15.338;2022-08-14T01:14:16;94806.13;;;17.28;94.15
47636;BME280;33364;50.766;15.338;2022-08-14T01:16:42;94801.22;;;17.25;94.59
47636;BME280;33364;50.766;15.338;2022-08-14T01:19:08;94795.00;;;17.26;95.01
47636;BME280;33364;50.766;15.338;2022-08-14T01:21:52;94793.38;;;17.25;94.32
47636;BME280;33364;50.766;15.338;2022-08-14T01:24:18;94788.63;;;17.20;93.79
47636;BME280;33364;50.766;15.338;2022-08-14T01:26:45;94790.94;;;17.23;93.61
47636;BME280;33364;50.766;15.338;2022-08-14T01:29:11;94784.06;;;17.22;93.60
47636;BME280;33364;50.766;15.338;2022-08-14T01:31:38;94785.69;;;17.23;93.58
47636;BME280;33364;50.766;15.338;2022-08-14T01:34:19;94781.59;;;17.21;93.42
47636;BME280;33364;50.766;15.338;2022-08-14T01:36:48;94775.75;;;17.19;93.93
47636;BME280;33364;50.766;15.338;2022-08-14T01:39:16;94784.41;;;17.19;94.11
47636;BME280;33364;50.766;15.338;2022-08-14T01:41:45;94786.38;;;17.17;93.88
47636;BME280;33364;50.766;15.338;2022-08-14T01:44:13;94791.63;;;17.09;94.40
47636;BME280;33364;50.766;15.338;2022-08-14T01:46:41;94788.38;;;17.07;94.56
47636;BME280;33364;50.766;15.338;2022-08-14T01:49:12;94789.00;;;17.09;94.04
47636;BME280;33364;50.766;15.338;2022-08-14T01:51:40;94796.34;;;17.14;93.65
47636;BME280;33364;50.766;15.338;2022-08-14T01:54:14;94790.44;;;17.12;93.60
47636;BME280;33364;50.766;15.338;2022-08-14T01:56:41;94786.53;;;17.16;93.21
47636;BME280;33364;50.766;15.338;2022-08-14T02:01:40;94791.75;;;17.24;92.29
47636;BME280;33364;50.766;15.338;2022-08-14T02:04:08;94791.38;;;17.27;91.84
47636;BME280;33364;50.766;15.338;2022-08-14T02:06:35;94786.34;;;17.25;91.82
47636;BME280;33364;50.766;15.338;2022-08-14T02:09:03;94786.69;;;17.22;91.92
47636;BME280;33364;50.766;15.338;2022-08-14T02:11:29;94774.25;;;17.16;92.26
47636;BME280;33364;50.766;15.338;2022-08-14T02:13:58;94771.50;;;17.09;92.92
47636;BME280;33364;50.766;15.338;2022-08-14T02:16:29;94767.44;;;17.07;92.42
47636;BME280;33364;50.766;15.338;2022-08-14T02:18:59;94759.94;;;17.04;91.68
47636;BME280;33364;50.766;15.338;2022-08-14T02:21:27;94769.56;;;17.03;91.28
47636;BME280;33364;50.766;15.338;2022-08-14T02:23:56;94769.25;;;16.98;91.35
47636;BME280;33364;50.766;15.338;2022-08-14T02:26:25;94770.06;;;16.91;90.79
47636;BME280;33364;50.766;15.338;2022-08-14T02:28:54;94770.59;;;16.78;90.49
47636;BME280;33364;50.766;15.338;2022-08-14T02:31:20;94767.31;;;16.76;91.19
47636;BME280;33364;50.766;15.338;2022-08-14T02:33:47;94765.38;;;16.78;91.55
47636;BME280;33364;50.766;15.338;2022-08-14T02:36:13;94769.13;;;16.83;90.39
47636;BME280;33364;50.766;15.338;2022-08-14T02:38:40;94776.59;;;16.87;89.83
47636;BME280;33364;50.766;15.338;2022-08-14T02:41:11;94772.69;;;16.91;89.75
47636;BME280;33364;50.766;15.338;2022-08-14T02:43:38;94772.19;;;16.95;89.66
47636;BME280;33364;50.766;15.338;2022-08-14T02:46:08;94765.16;;;16.96;89.32
47636;BME280;33364;50.766;15.338;2022-08-14T02:48:36;94772.53;;;16.92;89.42
47636;BME280;33364;50.766;15.338;2022-08-14T02:51:11;94772.38;;;16.94;89.69
47636;BME280;33364;50.766;15.338;2022-08-14T02:53:40;94767.31;;;16.92;89.21
47636;BME280;33364;50.766;15.338;2022-08-14T02:56:07;94766.63;;;16.98;89.00
47636;BME280;33364;50.766;15.338;2022-08-14T02:58:36;94768.59;;;16.96;89.62
47636;BME280;33364;50.766;15.338;2022-08-14T03:01:07;94771.69;;;17.00;89.67
47636;BME280;33364;50.766;15.338;2022-08-14T03:03:34;94765.97;;;16.96;89.89
47636;BME280;33364;50.766;15.338;2022-08-14T03:06:02;94770.25;;;16.97;89.89
47636;BME280;33364;50.766;15.338;2022-08-14T03:08:29;94758.97;;;16.97;89.73
47636;BME280;33364;50.766;15.338;2022-08-14T03:11:05;94765.47;;;17.01;89.23
47636;BME280;33364;50.766;15.338;2022-08-14T03:13:32;94762.38;;;17.05;88.57
47636;BME280;33364;50.766;15.338;2022-08-14T03:16:01;94763.16;;;17.06;88.46
47636;BME280;33364;50.766;15.338;2022-08-14T03:18:27;94762.53;;;17.04;89.14
47636;BME280;33364;50.766;15.338;2022-08-14T03:20:52;94765.97;;;17.04;88.68
47636;BME280;33364;50.766;15.338;2022-08-14T03:23:19;94766.28;;;17.09;88.85
47636;BME280;33364;50.766;15.338;2022-08-14T03:25:45;94759.44;;;17.08;88.83
47636;BME280;33364;50.766;15.338;2022-08-14T03:28:13;94754.84;;;17.11;88.42
47636;BME280;33364;50.766;15.338;2022-08-14T03:30:39;94760.72;;;17.13;88.27
47636;BME280;33364;50.766;15.338;2022-08-14T03:33:06;94759.91;;;17.12;88.06
47636;BME280;33364;50.766;15.338;2022-08-14T03:35:32;94754.84;;;17.11;87.89
47636;BME280;33364;50.766;15.338;2022-08-14T03:38:07;94754.00;;;17.10;88.63
47636;BME280;33364;50.766;15.338;2022-08-14T03:40:38;94747.47;;;17.14;88.92
47636;BME280;33364;50.766;15.338;2022-08-14T03:43:07;94748.91;;;17.17;87.93
47636;BME280;33364;50.766;15.338;2022-08-14T03:45:35;94751.72;;;17.15;87.62
47636;BME280;33364;50.766;15.338;2022-08-14T03:48:08;94743.22;;;17.13;87.82
47636;BME280;33364;50.766;15.338;2022-08-14T03:50:37;94748.41;;;17.21;87.32
47636;BME280;33364;50.766;15.338;2022-08-14T03:53:03;94742.72;;;17.18;87.50
47636;BME280;33364;50.766;15.338;2022-08-14T03:55:29;94732.91;;;17.20;87.43
47636;BME280;33364;50.766;15.338;2022-08-14T03:57:55;94739.94;;;17.19;88.23
47636;BME280;33364;50.766;15.338;2022-08-14T04:00:21;94735.19;;;17.23;88.37
47636;BME280;33364;50.766;15.338;2022-08-14T04:02:46;94736.16;;;17.22;88.56
47636;BME280;33364;50.766;15.338;2022-08-14T04:05:13;94732.91;;;17.20;89.12
47636;BME280;33364;50.766;15.338;2022-08-14T04:07:40;94735.38;;;17.13;90.04
47636;BME280;33364;50.766;15.338;2022-08-14T04:10:06;94729.50;;;17.11;90.13
47636;BME280;33364;50.766;15.338;2022-08-14T04:12:33;94732.09;;;17.11;90.14
47636;BME280;33364;50.766;15.338;2022-08-14T04:14:59;94723.94;;;17.14;90.39
47636;BME280;33364;50.766;15.338;2022-08-14T04:17:25;94727.38;;;17.15;89.73
47636;BME280;33364;50.766;15.338;2022-08-14T04:19:52;94727.38;;;17.15;90.76
47636;BME280;33364;50.766;15.338;2022-08-14T04:22:18;94731.78;;;17.14;90.83
47636;BME280;33364;50.766;15.338;2022-08-14T04:24:44;94726.88;;;17.19;90.75
47636;BME280;33364;50.766;15.338;2022-08-14T04:27:10;94728.66;;;17.19;90.95
47636;BME280;33364;50.766;15.338;2022-08-14T04:29:41;94721.97;;;17.16;91.64
47636;BME280;33364;50.766;15.338;2022-08-14T04:32:08;94727.50;;;17.21;91.28
47636;BME280;33364;50.766;15.338;2022-08-14T04:34:35;94726.69;;;17.21;91.15
47636;BME280;33364;50.766;15.338;2022-08-14T04:37:05;94724.72;;;17.23;91.57
47636;BME280;33364;50.766;15.338;2022-08-14T04:39:51;94724.56;;;17.24;92.15
47636;BME280;33364;50.766;15.338;2022-08-14T04:42:36;94729.78;;;17.24;93.24
47636;BME280;33364;50.766;15.338;2022-08-14T04:45:21;94720.78;;;17.27;93.74
47636;BME280;33364;50.766;15.338;2022-08-14T04:47:51;94716.84;;;17.31;94.19
47636;BME280;33364;50.766;15.338;2022-08-14T04:50:36;94710.31;;;17.27;93.50
47636;BME280;33364;50.766;15.338;2022-08-14T04:53:02;94711.59;;;17.31;93.72
47636;BME280;33364;50.766;15.338;2022-08-14T04:55:29;94716.00;;;17.39;93.86
47636;BME280;33364;50.766;15.338;2022-08-14T04:57:55;94713.69;;;17.44;94.62
47636;BME280;33364;50.766;15.338;2022-08-14T05:00:21;94704.97;;;17.51;93.21
47636;BME280;33364;50.766;15.338;2022-08-14T05:02:50;94696.91;;;17.61;93.48
47636;BME280;33364;50.766;15.338;2022-08-14T05:05:15;94697.38;;;17.73;92.61
47636;BME280;33364;50.766;15.338;2022-08-14T05:07:41;94695.16;;;17.84;91.59
47636;BME280;33364;50.766;15.338;2022-08-14T05:10:07;94701.00;;;17.95;91.52
47636;BME280;33364;50.766;15.338;2022-08-14T05:12:33;94699.56;;;18.07;91.09
47636;BME280;33364;50.766;15.338;2022-08-14T05:14:59;94702.63;;;18.19;90.87
47636;BME280;33364;50.766;15.338;2022-08-14T05:17:25;94702.81;;;18.32;90.59
47636;BME280;33364;50.766;15.338;2022-08-14T05:19:51;94698.34;;;18.41;90.03
47636;BME280;33364;50.766;15.338;2022-08-14T05:22:18;94693.03;;;18.49;90.19
47636;BME280;33364;50.766;15.338;2022-08-14T05:24:44;94692.31;;;18.55;89.02
47636;BME280;33364;50.766;15.338;2022-08-14T05:27:10;94689.63;;;18.63;87.15
47636;BME280;33364;50.766;15.338;2022-08-14T05:29:36;94696.81;;;18.69;87.34
47636;BME280;33364;50.766;15.338;2022-08-14T05:32:01;94684.97;;;18.73;87.08
47636;BME280;33364;50.766;15.338;2022-08-14T05:34:32;94683.06;;;18.82;87.57
47636;BME280;33364;50.766;15.338;2022-08-14T05:36:59;94683.88;;;18.82;86.74
47636;BME280;33364;50.766;15.338;2022-08-14T05:39:26;94681.16;;;18.91;87.32
47636;BME280;33364;50.766;15.338;2022-08-14T05:41:52;94679.63;;;18.96;86.71
47636;BME280;33364;50.766;15.338;2022-08-14T05:44:17;94683.34;;;19.02;86.56
47636;BME280;33364;50.766;15.338;2022-08-14T05:46:43;94680.53;;;19.03;85.43
47636;BME280;33364;50.766;15.338;2022-08-14T05:49:08;94687.88;;;19.08;84.79
47636;BME280;33364;50.766;15.338;2022-08-14T05:51:35;94679.63;;;19.11;85.09
47636;BME280;33364;50.766;15.338;2022-08-14T05:54:01;94686.41;;;19.20;84.31
47636;BME280;33364;50.766;15.338;2022-08-14T05:56:26;94675.69;;;19.36;83.43
47636;BME280;33364;50.766;15.338;2022-08-14T05:58:53;94674.00;;;19.44;82.46
47636;BME280;33364;50.766;15.338;2022-08-14T06:01:18;94676.94;;;19.55;82.93
47636;BME280;33364;50.766;15.338;2022-08-14T06:03:44;94676.88;;;19.63;82.28
47636;BME280;33364;50.766;15.338;2022-08-14T06:06:10;94675.06;;;19.64;81.41
47636;BME280;33364;50.766;15.338;2022-08-14T06:08:35;94667.44;;;19.69;80.58
47636;BME280;33364;50.766;15.338;2022-08-14T06:11:06;94666.06;;;19.73;80.93
47636;BME280;33364;50.766;15.338;2022-08-14T06:13:38;94660.47;;;19.83;79.21
47636;BME280;33364;50.766;15.338;2022-08-14T06:16:04;94657.63;;;19.99;79.62
47636;BME280;33364;50.766;15.338;2022-08-14T06:18:29;94658.13;;;20.09;78.64
47636;BME280;33364;50.766;15.338;2022-08-14T06:20:55;94667.69;;;20.17;77.97
47636;BME280;33364;50.766;15.338;2022-08-14T06:23:21;94660.13;;;20.29;78.78
47636;BME280;33364;50.766;15.338;2022-08-14T06:25:46;94656.47;;;20.30;78.39
47636;BME280;33364;50.766;15.338;2022-08-14T06:28:21;94655.75;;;20.42;75.86
47636;BME280;33364;50.766;15.338;2022-08-14T06:30:48;94646.56;;;20.53;75.36
47636;BME280;33364;50.766;15.338;2022-08-14T06:33:16;94647.41;;;20.54;74.37
47636;BME280;33364;50.766;15.338;2022-08-14T06:35:43;94647.91;;;20.71;73.30
47636;BME280;33364;50.766;15.338;2022-08-14T06:38:13;94636.94;;;21.02;74.42
47636;BME280;33364;50.766;15.338;2022-08-14T06:40:40;94639.66;;;21.15;71.58
47636;BME280;33364;50.766;15.338;2022-08-14T06:43:07;94643.31;;;21.20;71.01
47636;BME280;33364;50.766;15.338;2022-08-14T06:45:35;94649.16;;;21.16;71.77
47636;BME280;33364;50.766;15.338;2022-08-14T06:48:02;94649.97;;;21.16;73.07
47636;BME280;33364;50.766;15.338;2022-08-14T06:50:28;94656.09;;;21.24;73.87
47636;BME280;33364;50.766;15.338;2022-08-14T06:52:54;94656.81;;;21.04;69.97
47636;BME280;33364;50.766;15.338;2022-08-14T06:55:21;94654.56;;;21.01;71.42
47636;BME280;33364;50.766;15.338;2022-08-14T06:57:49;94658.53;;;20.84;72.00
47636;BME280;33364;50.766;15.338;2022-08-14T07:00:18;94661.16;;;20.84;72.20
47636;BME280;33364;50.766;15.338;2022-08-14T07:02:44;94661.06;;;20.71;70.87
47636;BME280;33364;50.766;15.338;2022-08-14T07:05:29;94653.06;;;20.57;71.39
47636;BME280;33364;50.766;15.338;2022-08-14T07:08:22;94655.22;;;20.47;72.76
47636;BME280;33364;50.766;15.338;2022-08-14T07:10:52;94652.88;;;20.37;72.54
47636;BME280;33364;50.766;15.338;2022-08-14T07:13:19;94648.63;;;20.36;72.62
47636;BME280;33364;50.766;15.338;2022-08-14T07:15:49;94649.53;;;20.43;72.01
47636;BME280;33364;50.766;15.338;2022-08-14T07:18:21;94648.38;;;20.53;72.25
47636;BME280;33364;50.766;15.338;2022-08-14T07:20:47;94649.06;;;20.61;71.58
47636;BME280;33364;50.766;15.338;2022-08-14T07:23:12;94645.53;;;20.82;70.79
47636;BME280;33364;50.766;15.338;2022-08-14T07:25:41;94643.25;;;21.07;70.11
47636;BME280;33364;50.766;15.338;2022-08-14T07:28:19;94642.06;;;21.10;70.29
47636;BME280;33364;50.766;15.338;2022-08-14T07:30:45;94644.88;;;21.08;70.36
47636;BME280;33364;50.766;15.338;2022-08-14T07:33:11;94646.88;;;21.06;70.06
47636;BME280;33364;50.766;15.338;2022-08-14T07:35:38;94643.44;;;21.06;70.82
47636;BME280;33364;50.766;15.338;2022-08-14T07:38:05;94639.81;;;21.07;70.55
47636;BME280;33364;50.766;15.338;2022-08-14T07:40:30;94635.09;;;20.95;71.57
47636;BME280;33364;50.766;15.338;2022-08-14T07:42:56;94634.50;;;20.93;70.73
47636;BME280;33364;50.766;15.338;2022-08-14T07:45:22;94630.78;;;20.88;71.55
47636;BME280;33364;50.766;15.338;2022-08-14T07:47:48;94623.53;;;20.90;72.17
47636;BME280;33364;50.766;15.338;2022-08-14T07:50:16;94628.59;;;20.91;72.97
47636;BME280;33364;50.766;15.338;2022-08-14T07:52:43;94629.88;;;21.02;72.49
47636;BME280;33364;50.766;15.338;2022-08-14T07:55:11;94625.19;;;20.98;72.04
47636;BME280;33364;50.766;15.338;2022-08-14T07:57:42;94630.44;;;20.98;71.95
47636;BME280;33364;50.766;15.338;2022-08-14T08:00:20;94627.78;;;20.91;72.20
47636;BME280;33364;50.766;15.338;2022-08-14T08:02:52;94625.16;;;20.91;73.13
47636;BME280;33364;50.766;15.338;2022-08-14T08:05:20;94624.03;;;21.07;71.84
47636;BME280;33364;50.766;15.338;2022-08-14T08:07:46;94622.06;;;21.22;71.76
47636;BME280;33364;50.766;15.338;2022-08-14T08:10:24;94631.72;;;21.50;71.43
47636;BME280;33364;50.766;15.338;2022-08-14T08:15:53;94629.84;;;22.25;68.79
47636;BME280;33364;50.766;15.338;2022-08-14T08:18:22;94635.31;;;22.30;67.50
47636;BME280;33364;50.766;15.338;2022-08-14T08:20:51;94628.59;;;22.54;67.88
47636;BME280;33364;50.766;15.338;2022-08-14T08:23:21;94626.56;;;22.49;66.54
47636;BME280;33364;50.766;15.338;2022-08-14T08:25:48;94629.63;;;22.53;66.52
47636;BME280;33364;50.766;15.338;2022-08-14T08:28:22;94627.94;;;22.78;66.30
47636;BME280;33364;50.766;15.338;2022-08-14T08:31:00;94623.84;;;23.15;64.98
47636;BME280;33364;50.766;15.338;2022-08-14T08:33:29;94623.03;;;23.60;63.54
47636;BME280;33364;50.766;15.338;2022-08-14T08:35:59;94625.84;;;23.71;62.80
47636;BME280;33364;50.766;15.338;2022-08-14T08:38:26;94619.91;;;23.76;61.69
47636;BME280;33364;50.766;15.338;2022-08-14T08:40:54;94618.78;;;23.52;61.35
47636;BME280;33364;50.766;15.338;2022-08-14T08:43:39;94615.09;;;23.15;62.39
47636;BME280;33364;50.766;15.338;2022-08-14T08:46:13;94616.19;;;22.81;63.43
47636;BME280;33364;50.766;15.338;2022-08-14T08:48:49;94615.81;;;22.44;63.67
47636;BME280;33364;50.766;15.338;2022-08-14T08:51:23;94633.47;;;22.17;63.58
47636;BME280;33364;50.766;15.338;2022-08-14T08:53:58;94622.88;;;22.04;64.85
47636;BME280;33364;50.766;15.338;2022-08-14T08:56:40;94620.88;;;21.99;65.35
47636;BME280;33364;50.766;15.338;2022-08-14T08:59:23;94627.75;;;21.87;65.47
47636;BME280;33364;50.766;15.338;2022-08-14T09:01:55;94618.81;;;21.75;65.55
47636;BME280;33364;50.766;15.338;2022-08-14T09:04:24;94616.56;;;21.71;65.86
47636;BME280;33364;50.766;15.338;2022-08-14T09:06:50;94621.94;;;21.43;67.45
47636;BME280;33364;50.766;15.338;2022-08-14T09:09:20;94619.31;;;21.37;67.72
47636;BME280;33364;50.766;15.338;2022-08-14T09:11:47;94613.66;;;21.40;67.54
47636;BME280;33364;50.766;15.338;2022-08-14T09:14:13;94619.75;;;21.47;67.27
47636;BME280;33364;50.766;15.338;2022-08-14T09:16:39;94618.56;;;21.56;67.32
47636;BME280;33364;50.766;15.338;2022-08-14T09:19:05;94620.00;;;21.65;67.22
47636;BME280;33364;50.766;15.338;2022-08-14T09:21:32;94616.75;;;21.63;67.86
47636;BME280;33364;50.766;15.338;2022-08-14T09:23:59;94620.00;;;21.65;66.98
47636;BME280;33364;50.766;15.338;2022-08-14T09:26:26;94620.59;;;21.61;66.79
47636;BME280;33364;50.766;15.338;2022-08-14T09:28:51;94619.53;;;21.49;67.67
47636;BME280;33364;50.766;15.338;2022-08-14T09:31:18;94614.16;;;21.15;68.74
47636;BME280;33364;50.766;15.338;2022-08-14T09:34:13;94608.88;;;21.09;69.07
47636;BME280;33364;50.766;15.338;2022-08-14T09:36:56;94611.66;;;21.07;68.64
47636;BME280;33364;50.766;15.338;2022-08-14T09:45:16;94606.22;;;21.09;70.84
47636;BME280;33364;50.766;15.338;2022-08-14T09:47:50;94605.13;;;21.31;71.12
47636;BME280;33364;50.766;15.338;2022-08-14T09:50:20;94614.91;;;21.44;71.15
47636;BME280;33364;50.766;15.338;2022-08-14T09:53:06;94616.69;;;21.37;72.89
47636;BME280;33364;50.766;15.338;2022-08-14T09:55:34;94619.84;;;21.19;72.98
47636;BME280;33364;50.766;15.338;2022-08-14T09:58:17;94624.44;;;21.04;73.72
47636;BME280;33364;50.766;15.338;2022-08-14T10:00:47;94623.91;;;20.87;74.92
47636;BME280;33364;50.766;15.338;2022-08-14T10:03:34;94624.56;;;20.89;76.81
47636;BME280;33364;50.766;15.338;2022-08-14T10:06:13;94615.06;;;20.94;78.04
47636;BME280;33364;50.766;15.338;2022-08-14T10:08:51;94610.44;;;21.03;78.40
47636;BME280;33364;50.766;15.338;2022-08-14T10:11:23;94593.25;;;21.07;79.13
47636;BME280;33364;50.766;15.338;2022-08-14T10:13:51;94597.91;;;21.05;78.38
47636;BME280;33364;50.766;15.338;2022-08-14T10:16:21;94583.31;;;21.03;79.08
47636;BME280;33364;50.766;15.338;2022-08-14T10:19:04;94580.50;;;21.04;79.91
47636;BME280;33364;50.766;15.338;2022-08-14T10:21:30;94580.88;;;20.94;79.58
47636;BME280;33364;50.766;15.338;2022-08-14T10:23:56;94574.81;;;20.94;78.27
47636;BME280;33364;50.766;15.338;2022-08-14T10:26:21;94576.78;;;20.85;78.48
47636;BME280;33364;50.766;15.338;2022-08-14T10:28:51;94567.50;;;20.89;79.15
47636;BME280;33364;50.766;15.338;2022-08-14T10:31:26;94568.31;;;20.90;78.22
47636;BME280;33364;50.766;15.338;2022-08-14T10:34:04;94560.72;;;21.28;76.56
47636;BME280;33364;50.766;15.338;2022-08-14T10:36:37;94565.47;;;21.53;77.98
47636;BME280;33364;50.766;15.338;2022-08-14T10:39:15;94556.59;;;21.93;76.13
47636;BME280;33364;50.766;15.338;2022-08-14T10:41:42;94550.75;;;22.18;76.88
47636;BME280;33364;50.766;15.338;2022-08-14T10:44:14;94543.19;;;22.48;74.51
47636;BME280;33364;50.766;15.338;2022-08-14T10:46:52;94548.69;;;22.46;76.23
47636;BME280;33364;50.766;15.338;2022-08-14T10:49:24;94542.72;;;22.91;71.96
47636;BME280;33364;50.766;15.338;2022-08-14T10:57:11;94530.19;;;23.24;68.34
47636;BME280;33364;50.766;15.338;2022-08-14T10:59:44;94537.63;;;22.83;69.93
47636;BME280;33364;50.766;15.338;2022-08-14T11:02:33;94523.03;;;22.80;71.28
47636;BME280;33364;50.766;15.338;2022-08-14T11:05:06;94518.63;;;22.61;72.21
47636;BME280;33364;50.766;15.338;2022-08-14T11:07:42;94518.84;;;22.53;72.00
47636;BME280;33364;50.766;15.338;2022-08-14T11:10:24;94523.97;;;22.41;71.37
47636;BME280;33364;50.766;15.338;2022-08-14T11:12:55;94519.03;;;22.58;73.06
47636;BME280;33364;50.766;15.338;2022-08-14T11:15:27;94522.28;;;22.53;70.94
47636;BME280;33364;50.766;15.338;2022-08-14T11:17:54;94529.44;;;22.39;69.76
47636;BME280;33364;50.766;15.338;2022-08-14T11:20:23;94532.25;;;22.38;70.63
47636;BME280;33364;50.766;15.338;2022-08-14T11:22:54;94533.47;;;22.09;70.22
47636;BME280;33364;50.766;15.338;2022-08-14T11:25:23;94528.22;;;22.02;70.75
47636;BME280;33364;50.766;15.338;2022-08-14T11:27:52;94534.09;;;21.97;69.64
47636;BME280;33364;50.766;15.338;2022-08-14T11:30:20;94528.66;;;21.79;69.93
47636;BME280;33364;50.766;15.338;2022-08-14T11:32:48;94523.78;;;21.83;71.68
47636;BME280;33364;50.766;15.338;2022-08-14T11:35:17;94534.09;;;21.97;72.06
47636;BME280;33364;50.766;15.338;2022-08-14T11:38:02;94530.47;;;21.92;70.90
47636;BME280;33364;50.766;15.338;2022-08-14T11:40:34;94522.75;;;21.77;70.66
47636;BME280;33364;50.766;15.338;2022-08-14T11:43:05;94517.09;;;21.60;71.60
47636;BME280;33364;50.766;15.338;2022-08-14T11:45:34;94510.19;;;21.66;72.07
47636;BME280;33364;50.766;15.338;2022-08-14T11:48:01;94513.22;;;21.63;71.05
47636;BME280;33364;50.766;15.338;2022-08-14T11:50:39;94519.53;;;21.75;74.83
47636;BME280;33364;50.766;15.338;2022-08-14T11:53:21;94517.69;;;21.82;72.97
47636;BME280;33364;50.766;15.338;2022-08-14T11:55:54;94523.19;;;21.94;72.85
47636;BME280;33364;50.766;15.338;2022-08-14T11:58:24;94520.75;;;22.12;72.56
47636;BME280;33364;50.766;15.338;2022-08-14T12:00:53;94521.97;;;22.30;70.19
47636;BME280;33364;50.766;15.338;2022-08-14T12:03:19;94514.00;;;22.43;71.22
47636;BME280;33364;50.766;15.338;2022-08-14T12:05:46;94513.22;;;22.36;69.28
47636;BME280;33364;50.766;15.338;2022-08-14T12:08:12;94502.47;;;22.37;70.74
47636;BME280;33364;50.766;15.338;2022-08-14T12:10:40;94509.16;;;22.40;69.51
47636;BME280;33364;50.766;15.338;2022-08-14T12:13:14;94500.47;;;22.19;69.69
47636;BME280;33364;50.766;15.338;2022-08-14T12:15:42;94491.31;;;22.09;71.38
47636;BME280;33364;50.766;15.338;2022-08-14T12:18:08;94484.84;;;22.25;69.39
47636;BME280;33364;50.766;15.338;2022-08-14T12:20:36;94490.13;;;22.25;69.65
47636;BME280;33364;50.766;15.338;2022-08-14T12:23:04;94492.16;;;22.22;69.63
47636;BME280;33364;50.766;15.338;2022-08-14T12:25:31;94490.50;;;22.35;69.26
47636;BME280;33364;50.766;15.338;2022-08-14T12:27:58;94501.88;;;22.35;69.00
47636;BME280;33364;50.766;15.338;2022-08-14T12:30:34;94499.88;;;22.24;67.57
47636;BME280;33364;50.766;15.338;2022-08-14T12:33:01;94492.34;;;22.28;68.85
47636;BME280;33364;50.766;15.338;2022-08-14T12:35:41;94493.34;;;22.07;68.55
47636;BME280;33364;50.766;15.338;2022-08-14T12:38:09;94489.50;;;22.22;68.82
47636;BME280;33364;50.766;15.338;2022-08-14T12:40:49;94479.78;;;22.30;67.66
47636;BME280;33364;50.766;15.338;2022-08-14T12:43:16;94482.16;;;22.38;67.74
47636;BME280;33364;50.766;15.338;2022-08-14T12:45:53;94483.44;;;22.22;67.91
47636;BME280;33364;50.766;15.338;2022-08-14T12:48:20;94483.84;;;22.12;68.35
47636;BME280;33364;50.766;15.338;2022-08-14T12:50:47;94480.59;;;22.04;69.33
47636;BME280;33364;50.766;15.338;2022-08-14T12:53:16;94469.44;;;22.02;68.29
47636;BME280;33364;50.766;15.338;2022-08-14T12:55:42;94477.16;;;22.10;69.53
47636;BME280;33364;50.766;15.338;2022-08-14T12:58:09;94472.88;;;22.02;68.04
47636;BME280;33364;50.766;15.338;2022-08-14T13:00:38;94474.31;;;21.98;69.06
47636;BME280;33364;50.766;15.338;2022-08-14T13:03:22;94471.47;;;21.93;68.33
47636;BME280;33364;50.766;15.338;2022-08-14T13:05:49;94470.28;;;21.95;67.90
47636;BME280;33364;50.766;15.338;2022-08-14T13:08:15;94474.09;;;22.06;67.63
47636;BME280;33364;50.766;15.338;2022-08-14T13:10:41;94466.22;;;22.13;67.71
47636;BME280;33364;50.766;15.338;2022-08-14T13:13:08;94465.19;;;22.20;68.60
47636;BME280;33364;50.766;15.338;2022-08-14T13:15:35;94462.75;;;22.12;68.38
47636;BME280;33364;50.766;15.338;2022-08-14T13:18:01;94453.41;;;22.30;68.76